Time;durP1;ratioP1;P1;durP2;ratioP2;P2;SDS_P1;SDS_P2;PMS_P1;PMS_P2;Temp;Humidity;BMP_temperature;BMP_pressure;BME280_temperature;BME280_humidity;BME280_pressure;Samples;Min_cycle;Max_cycle;Signal;HPM_P1;HPM_P2
2022/01/18 00:02:02;;;;;;;10.77;2.03;;;5.50;90.80;;;;;;5033251;28;20521;-45
2022/01/18 00:04:28;;;;;;;8.98;1.85;;;5.50;91.00;;;;;;5033027;28;20329;-46
2022/01/18 00:06:57;;;;;;;17.13;2.30;;;5.50;90.80;;;;;;5032425;28;20033;-44
2022/01/18 00:09:25;;;;;;;11.63;2.20;;;5.60;91.00;;;;;;5048492;28;20041;-46
2022/01/18 00:12:27;;;;;;;10.35;1.90;;;5.60;90.90;;;;;;5033377;28;20288;-44
2022/01/18 00:14:55;;;;;;;20.25;2.40;;;5.50;90.70;;;;;;5033381;28;20038;-45
2022/01/18 00:17:40;;;;;;;14.93;2.13;;;5.50;90.60;;;;;;5032399;28;20031;-47
2022/01/18 00:20:10;;;;;;;12.57;3.13;;;5.50;90.60;;;;;;5033087;28;20037;-45
2022/01/18 00:22:37;;;;;;;12.82;2.50;;;5.40;90.60;;;;;;5032687;28;20034;-45
2022/01/18 00:25:04;;;;;;;13.07;3.05;;;5.40;90.60;;;;;;5032745;28;20121;-44
2022/01/18 00:27:35;;;;;;;9.95;1.90;;;5.40;90.70;;;;;;5032307;28;20040;-45
2022/01/18 00:32:48;;;;;;;17.98;3.38;;;5.50;90.80;;;;;;5032784;28;20056;-49
2022/01/18 00:35:16;;;;;;;20.38;3.22;;;5.60;91.10;;;;;;5032604;28;20335;-46
2022/01/18 00:37:51;;;;;;;20.52;3.42;;;5.60;91.20;;;;;;5012155;28;20050;-48
2022/01/18 00:40:18;;;;;;;37.22;6.00;;;5.70;91.40;;;;;;5023807;28;20112;-45
2022/01/18 00:42:47;;;;;;;36.60;5.47;;;5.70;91.50;;;;;;5045515;28;20059;-43
2022/01/18 00:45:14;;;;;;;20.75;3.53;;;5.70;91.60;;;;;;5033002;28;20033;-45
2022/01/18 00:47:41;;;;;;;17.13;3.97;;;5.80;91.70;;;;;;5031988;28;20126;-47
2022/01/18 00:50:09;;;;;;;32.15;5.03;;;5.90;91.90;;;;;;5032122;28;20029;-45
2022/01/18 00:52:42;;;;;;;31.83;5.82;;;5.90;91.90;;;;;;5032497;28;20042;-47
2022/01/18 00:55:10;;;;;;;34.22;6.45;;;5.90;92.00;;;;;;5032548;28;20041;-46
2022/01/18 00:57:40;;;;;;;21.00;5.88;;;5.90;92.10;;;;;;5033083;28;20030;-43
2022/01/18 01:00:08;;;;;;;37.50;5.18;;;5.90;92.10;;;;;;5031575;28;20029;-50
2022/01/18 01:02:36;;;;;;;26.10;5.45;;;5.90;92.30;;;;;;5032527;28;20037;-46
2022/01/18 01:05:03;;;;;;;31.20;7.25;;;5.90;92.30;;;;;;5031849;28;20037;-47
2022/01/18 01:07:30;;;;;;;41.45;7.28;;;5.90;92.30;;;;;;5031928;28;20029;-43
2022/01/18 01:09:56;;;;;;;33.05;6.43;;;5.90;92.30;;;;;;5031774;28;20462;-47
2022/01/18 01:12:28;;;;;;;40.78;6.72;;;5.90;92.50;;;;;;5032014;28;20033;-46
2022/01/18 01:15:02;;;;;;;43.20;7.60;;;5.90;92.40;;;;;;5031420;28;20048;-45
2022/01/18 01:17:45;;;;;;;37.47;6.78;;;5.90;92.40;;;;;;5032783;28;20045;-43
2022/01/18 01:46:46;;;;;;;44.55;9.00;;;6.40;93.00;;;;;;5035682;28;20033;-46
2022/01/18 01:49:15;;;;;;;41.70;7.00;;;6.50;93.20;;;;;;5035266;28;20030;-45
2022/01/18 01:51:44;;;;;;;42.40;7.20;;;6.60;93.20;;;;;;5035547;28;20593;-45
2022/01/18 01:54:11;;;;;;;43.75;7.22;;;6.70;93.10;;;;;;5035330;28;20029;-44
2022/01/18 01:56:37;;;;;;;64.05;10.45;;;6.60;93.00;;;;;;5035327;28;20112;-50
2022/01/18 01:59:04;;;;;;;46.60;7.85;;;6.70;93.00;;;;;;5035308;28;20105;-43
2022/01/18 02:01:37;;;;;;;50.22;8.63;;;6.60;93.00;;;;;;5035446;28;20051;-47
2022/01/18 02:04:03;;;;;;;39.92;9.05;;;6.60;92.90;;;;;;5034980;28;20522;-44
2022/01/18 02:06:28;;;;;;;37.38;6.60;;;6.60;92.90;;;;;;5034684;28;20132;-48
2022/01/18 02:08:55;;;;;;;39.78;6.80;;;6.60;92.90;;;;;;5035189;28;20116;-46
2022/01/18 02:11:22;;;;;;;50.40;6.93;;;6.60;92.90;;;;;;5034207;28;20029;-43
2022/01/18 02:13:51;;;;;;;48.03;7.75;;;6.60;92.90;;;;;;5035422;28;20037;-48
2022/01/18 02:21:46;;;;;;;35.17;6.28;;;6.60;92.80;;;;;;5032928;28;20091;-43
2022/01/18 02:21:50;;;;;;;44.50;8.27;;;6.60;92.90;;;;;;5033423;28;20782;-43
2022/01/18 02:24:20;;;;;;;35.47;8.15;;;6.50;92.80;;;;;;5035104;28;20033;-45
2022/01/18 02:26:47;;;;;;;43.55;7.07;;;6.60;92.80;;;;;;5035135;28;20033;-43
2022/01/18 02:29:15;;;;;;;27.73;5.70;;;6.50;92.60;;;;;;5034892;28;20155;-47
2022/01/18 02:31:42;;;;;;;52.00;10.55;;;6.50;92.60;;;;;;5035238;28;20104;-45
2022/01/18 02:34:17;;;;;;;35.15;7.40;;;6.50;92.70;;;;;;5035037;28;20033;-44
2022/01/18 02:36:45;;;;;;;43.10;8.00;;;6.50;92.70;;;;;;5035534;28;20125;-44
2022/01/18 02:39:18;;;;;;;44.30;7.55;;;6.50;92.70;;;;;;5034281;28;20041;-43
2022/01/18 02:42:01;;;;;;;36.95;7.10;;;6.40;92.60;;;;;;5037214;28;20032;-45
2022/01/18 02:44:30;;;;;;;41.90;7.63;;;6.40;92.60;;;;;;5034198;28;20030;-45
2022/01/18 02:46:57;;;;;;;44.50;6.90;;;6.40;92.60;;;;;;5035090;28;20151;-43
2022/01/18 02:49:26;;;;;;;39.85;6.88;;;6.40;92.70;;;;;;5033685;28;20037;-45
2022/01/18 02:51:54;;;;;;;43.60;8.30;;;6.40;92.80;;;;;;5033943;28;20344;-44
2022/01/18 02:54:21;;;;;;;35.83;6.15;;;6.50;92.90;;;;;;5034272;28;20029;-44
2022/01/18 02:56:57;;;;;;;38.53;6.60;;;6.60;92.90;;;;;;5034084;28;20053;-47
2022/01/18 02:59:45;;;;;;;29.77;5.53;;;6.60;92.90;;;;;;5030386;28;20080;-44
2022/01/18 03:05:17;;;;;;;47.63;7.93;;;6.70;92.90;;;;;;5034432;28;20091;-45
2022/01/18 03:07:43;;;;;;;36.03;6.07;;;6.70;92.80;;;;;;5035312;28;20042;-45
2022/01/18 03:10:13;;;;;;;35.65;6.10;;;6.70;92.80;;;;;;5034654;28;20374;-44
2022/01/18 03:12:39;;;;;;;26.92;5.70;;;6.70;92.70;;;;;;5035134;28;20459;-45
2022/01/18 03:15:07;;;;;;;40.60;7.38;;;6.70;92.60;;;;;;5033664;28;20459;-43
2022/01/18 03:17:34;;;;;;;25.83;4.20;;;6.70;92.50;;;;;;5034756;28;20037;-44
2022/01/18 03:20:03;;;;;;;35.28;6.72;;;6.60;92.40;;;;;;5022644;28;20035;-46
2022/01/18 03:22:30;;;;;;;36.45;5.38;;;6.70;92.40;;;;;;5035167;28;20029;-44
2022/01/18 03:25:25;;;;;;;23.88;5.50;;;6.70;92.40;;;;;;5033869;28;20029;-44
2022/01/18 03:28:06;;;;;;;33.03;5.10;;;6.70;92.30;;;;;;5034889;28;20459;-44
2022/01/18 03:30:54;;;;;;;33.58;5.55;;;6.70;92.20;;;;;;5033583;28;20029;-44
2022/01/18 03:33:23;;;;;;;35.90;6.90;;;6.70;92.10;;;;;;5034445;28;20459;-44
2022/01/18 03:35:50;;;;;;;33.70;5.68;;;6.70;91.90;;;;;;5033630;28;20033;-44
2022/01/18 03:38:19;;;;;;;24.45;6.55;;;6.60;91.80;;;;;;5033524;28;20055;-44
2022/01/18 03:40:47;;;;;;;32.22;5.93;;;6.50;91.70;;;;;;5035491;28;20043;-44
2022/01/18 03:43:14;;;;;;;31.45;4.47;;;6.40;91.60;;;;;;5053218;28;20481;-43
2022/01/18 03:45:44;;;;;;;25.80;4.45;;;6.40;91.70;;;;;;5038819;28;20056;-43
2022/01/18 03:48:23;;;;;;;28.33;4.88;;;6.40;91.60;;;;;;5030811;28;20032;-44
2022/01/18 03:50:48;;;;;;;35.03;6.13;;;6.30;91.60;;;;;;5032390;28;20037;-45
2022/01/18 03:53:18;;;;;;;30.17;6.20;;;6.20;91.50;;;;;;5016626;28;20451;-44
2022/01/18 03:55:45;;;;;;;29.08;5.80;;;6.10;91.50;;;;;;5032677;28;20035;-44
2022/01/18 03:58:11;;;;;;;36.90;7.53;;;5.90;91.60;;;;;;5033712;28;20038;-44
2022/01/18 04:00:37;;;;;;;37.50;7.47;;;5.90;91.80;;;;;;5033316;28;20112;-44
2022/01/18 04:03:03;;;;;;;25.17;5.63;;;5.90;92.00;;;;;;5033476;28;20049;-44
2022/01/18 04:05:30;;;;;;;28.85;6.68;;;5.80;92.00;;;;;;5032174;28;20035;-44
2022/01/18 04:07:57;;;;;;;27.90;5.85;;;5.80;92.00;;;;;;5032703;28;20017;-44
2022/01/18 04:10:24;;;;;;;25.42;5.30;;;5.80;92.10;;;;;;5033242;28;20056;-44
2022/01/18 04:12:53;;;;;;;28.52;5.28;;;5.70;92.00;;;;;;5032500;28;20033;-44
2022/01/18 04:15:20;;;;;;;31.10;5.37;;;5.60;92.10;;;;;;5032092;28;20037;-44
2022/01/18 04:31:03;;;;;;;30.65;5.28;;;5.50;92.10;;;;;;5033385;28;20029;-44
2022/01/18 04:33:33;;;;;;;39.78;6.20;;;5.50;92.20;;;;;;5031272;28;20021;-44
2022/01/18 04:36:00;;;;;;;21.88;5.18;;;5.40;92.20;;;;;;5032490;28;20041;-43
2022/01/18 04:38:27;;;;;;;35.13;5.88;;;5.40;92.30;;;;;;5033195;28;20033;-43
2022/01/18 04:41:00;;;;;;;32.03;5.70;;;5.40;92.30;;;;;;5037046;28;20039;-44
2022/01/18 04:43:54;;;;;;;25.73;6.25;;;5.40;92.40;;;;;;5052805;28;20045;-43
2022/01/18 04:49:07;;;;;;;32.20;5.15;;;5.40;92.60;;;;;;5033073;28;20704;-44
2022/01/18 04:51:34;;;;;;;35.55;5.50;;;5.40;92.50;;;;;;5032899;28;20037;-45
2022/01/18 04:54:03;;;;;;;27.45;5.13;;;5.30;92.60;;;;;;5048339;28;20134;-44
2022/01/18 04:59:08;;;;;;;33.00;5.05;;;5.30;92.60;;;;;;5032843;28;20060;-46
2022/01/18 05:01:36;;;;;;;27.63;4.82;;;5.30;92.60;;;;;;5033184;28;20044;-45
2022/01/18 05:04:03;;;;;;;23.45;4.50;;;5.20;92.60;;;;;;5031921;28;20044;-43
2022/01/18 05:06:30;;;;;;;26.25;3.72;;;5.20;92.70;;;;;;5032233;28;20128;-43
2022/01/18 05:09:00;;;;;;;26.65;5.13;;;5.20;92.70;;;;;;5031581;28;20057;-44
2022/01/18 05:11:30;;;;;;;30.63;5.75;;;5.20;92.70;;;;;;5031153;28;20049;-43
2022/01/18 05:14:26;;;;;;;21.42;4.18;;;5.30;92.80;;;;;;5015630;28;20046;-44
2022/01/18 05:18:09;;;;;;;19.40;4.70;;;5.30;92.80;;;;;;5035405;28;20033;-44
2022/01/18 05:25:16;;;;;;;22.27;3.92;;;5.30;92.70;;;;;;5036544;28;20091;-43
2022/01/18 05:27:43;;;;;;;25.55;4.30;;;5.30;92.70;;;;;;5036318;28;20342;-44
2022/01/18 05:30:10;;;;;;;20.13;3.22;;;5.30;92.50;;;;;;5035680;28;20038;-44
2022/01/18 05:32:37;;;;;;;15.38;3.78;;;5.30;92.50;;;;;;5036310;28;20026;-44
2022/01/18 05:35:03;;;;;;;19.92;5.95;;;5.20;92.50;;;;;;5036264;28;20120;-44
2022/01/18 05:37:28;;;;;;;26.10;3.58;;;5.20;92.50;;;;;;5036310;28;20113;-44
2022/01/18 05:39:55;;;;;;;24.05;3.28;;;5.20;92.40;;;;;;5036124;28;20042;-46
2022/01/18 05:42:22;;;;;;;32.15;4.97;;;5.10;92.30;;;;;;5051951;28;20048;-48
2022/01/18 05:44:49;;;;;;;22.40;3.67;;;5.10;92.20;;;;;;5049130;28;20057;-43
2022/01/18 05:47:16;;;;;;;13.48;4.03;;;5.00;92.20;;;;;;5035768;28;20080;-45
2022/01/18 05:49:43;;;;;;;22.40;3.25;;;5.00;92.20;;;;;;5035444;28;20041;-45
2022/01/18 05:52:13;;;;;;;18.77;4.22;;;5.00;92.30;;;;;;5035212;28;20565;-45
2022/01/18 05:54:40;;;;;;;16.35;2.67;;;5.10;92.30;;;;;;5036402;28;20034;-47
2022/01/18 05:57:07;;;;;;;17.88;3.72;;;5.10;92.20;;;;;;5034632;28;20090;-45
2022/01/18 05:59:37;;;;;;;13.15;2.58;;;5.10;92.10;;;;;;5035073;28;20391;-45
2022/01/18 06:02:29;;;;;;;;;;;5.10;92.10;;;;;;5035816;28;20098;-44
2022/01/18 06:07:40;;;;;;;16.92;3.78;;;5.10;92.10;;;;;;5033568;28;20036;-43
2022/01/18 06:10:08;;;;;;;14.75;3.90;;;5.10;92.00;;;;;;5035219;28;20049;-43
2022/01/18 06:12:36;;;;;;;13.35;3.30;;;5.20;92.00;;;;;;5033797;28;20041;-44
2022/01/18 06:15:04;;;;;;;12.60;3.17;;;5.20;92.00;;;;;;5034852;28;20041;-43
2022/01/18 06:17:31;;;;;;;13.45;2.97;;;5.20;91.90;;;;;;5034536;28;20037;-44
2022/01/18 06:20:01;;;;;;;10.73;3.70;;;5.30;91.90;;;;;;5034843;28;20041;-45
2022/01/18 06:22:28;;;;;;;21.80;4.90;;;5.40;91.90;;;;;;5034891;28;20034;-44
2022/01/18 06:24:54;;;;;;;19.00;4.82;;;5.40;91.80;;;;;;5035070;28;20454;-45
2022/01/18 06:27:21;;;;;;;15.20;3.22;;;5.40;91.80;;;;;;5034195;28;20040;-46
2022/01/18 06:29:48;;;;;;;15.68;3.50;;;5.40;91.90;;;;;;5034667;28;20026;-47
2022/01/18 06:32:15;;;;;;;16.45;3.63;;;5.50;91.90;;;;;;5034355;28;20162;-49
2022/01/18 06:34:41;;;;;;;17.60;4.70;;;5.50;91.90;;;;;;5035375;28;20228;-53
2022/01/18 06:37:07;;;;;;;12.73;4.00;;;5.60;91.90;;;;;;5035051;28;20135;-55
2022/01/18 06:39:34;;;;;;;12.57;2.60;;;5.60;91.90;;;;;;5034672;28;20179;-52
2022/01/18 06:42:00;;;;;;;20.20;3.85;;;5.70;91.90;;;;;;5036107;28;20033;-57
2022/01/18 06:44:27;;;;;;;15.05;3.60;;;5.70;91.80;;;;;;5033213;28;20044;-56
2022/01/18 06:46:54;;;;;;;11.88;3.13;;;5.70;91.70;;;;;;5034700;28;20115;-53
2022/01/18 06:49:21;;;;;;;9.75;3.72;;;5.70;91.80;;;;;;5034317;28;20032;-55
2022/01/18 06:51:48;;;;;;;13.00;4.35;;;5.70;91.80;;;;;;5034442;28;20037;-51
2022/01/18 06:54:16;;;;;;;13.70;5.28;;;5.70;91.80;;;;;;5033129;28;20033;-56
2022/01/18 06:56:47;;;;;;;18.40;3.05;;;5.80;91.80;;;;;;5033998;28;20021;-56
2022/01/18 06:59:14;;;;;;;14.20;4.00;;;5.80;91.80;;;;;;5033709;28;20032;-56
2022/01/18 07:01:42;;;;;;;12.63;3.15;;;5.80;91.80;;;;;;5032721;28;20033;-53
2022/01/18 07:04:09;;;;;;;25.65;4.53;;;5.80;91.70;;;;;;5033683;28;20044;-53
2022/01/18 07:06:36;;;;;;;13.98;3.03;;;5.80;91.70;;;;;;5033187;28;20040;-53
2022/01/18 07:09:03;;;;;;;13.95;3.63;;;5.80;91.70;;;;;;5032914;28;20037;-51
2022/01/18 07:11:32;;;;;;;17.80;3.25;;;5.80;91.80;;;;;;5040846;28;20033;-55
2022/01/18 07:13:59;;;;;;;16.90;3.60;;;5.90;91.70;;;;;;5032308;28;20110;-52
2022/01/18 07:16:26;;;;;;;19.10;4.72;;;5.90;91.80;;;;;;5033977;28;20120;-55
2022/01/18 07:18:52;;;;;;;13.93;3.10;;;5.90;91.80;;;;;;5032761;28;20030;-54
2022/01/18 07:21:19;;;;;;;14.50;3.40;;;5.90;91.80;;;;;;5023961;28;20363;-52
2022/01/18 07:23:45;;;;;;;16.95;4.47;;;5.90;91.80;;;;;;5032992;28;20047;-54
2022/01/18 07:26:13;;;;;;;14.02;3.80;;;5.90;91.90;;;;;;5032328;28;20034;-49
2022/01/18 07:28:39;;;;;;;11.32;3.22;;;5.90;91.90;;;;;;5033540;28;20036;-53
2022/01/18 07:31:04;;;;;;;27.30;9.65;;;5.90;91.80;;;;;;5030874;28;20033;-53
2022/01/18 07:33:31;;;;;;;19.80;6.72;;;5.90;91.80;;;;;;5031950;28;20037;-53
2022/01/18 07:35:58;;;;;;;19.75;4.38;;;5.90;92.00;;;;;;5015661;28;20112;-54
2022/01/18 07:38:24;;;;;;;19.63;5.05;;;6.00;92.10;;;;;;5033965;28;20059;-54
2022/01/18 07:40:53;;;;;;;14.93;4.10;;;6.00;92.10;;;;;;5033388;28;20021;-48
2022/01/18 07:43:21;;;;;;;13.10;3.60;;;6.00;92.20;;;;;;5033391;28;20107;-50
2022/01/18 07:45:50;;;;;;;10.38;3.42;;;6.10;92.20;;;;;;5028107;28;20040;-51
2022/01/18 07:48:23;;;;;;;15.05;4.50;;;6.20;92.30;;;;;;5033651;28;20033;-51
2022/01/18 07:50:52;;;;;;;16.15;4.40;;;6.20;92.30;;;;;;5032271;28;20025;-50
2022/01/18 07:53:19;;;;;;;17.92;3.95;;;6.20;92.30;;;;;;5033278;28;20029;-53
2022/01/18 07:55:44;;;;;;;23.55;5.55;;;6.20;92.30;;;;;;5032991;28;20041;-53
2022/01/18 07:58:10;;;;;;;14.25;4.72;;;6.30;92.40;;;;;;5033597;28;20033;-53
2022/01/18 08:00:37;;;;;;;16.70;4.60;;;6.30;92.40;;;;;;5029670;28;20021;-53
2022/01/18 08:03:04;;;;;;;12.57;3.38;;;6.40;92.40;;;;;;5032711;28;20029;-52
2022/01/18 08:05:31;;;;;;;17.15;3.78;;;6.40;92.30;;;;;;5031060;28;20045;-51
2022/01/18 08:07:56;;;;;;;16.15;3.88;;;6.40;92.30;;;;;;5032617;28;20102;-48
2022/01/18 08:10:30;;;;;;;14.40;5.00;;;6.40;92.30;;;;;;5032438;28;20440;-53
2022/01/18 08:13:00;;;;;;;16.80;4.05;;;6.40;92.30;;;;;;5032922;28;20304;-52
2022/01/18 08:15:37;;;;;;;14.27;4.30;;;6.40;92.30;;;;;;5031734;28;20029;-51
2022/01/18 08:18:09;;;;;;;15.95;4.20;;;6.40;92.30;;;;;;5033396;28;20044;-53
2022/01/18 08:20:36;;;;;;;14.45;3.80;;;6.40;92.30;;;;;;5024328;28;20679;-49
2022/01/18 08:23:03;;;;;;;15.55;4.10;;;6.40;92.40;;;;;;5031647;28;20167;-50
2022/01/18 08:25:34;;;;;;;12.77;4.57;;;6.40;92.40;;;;;;5032474;28;20037;-51
2022/01/18 08:28:03;;;;;;;18.08;3.47;;;6.50;92.40;;;;;;5033430;28;20052;-50
2022/01/18 08:30:31;;;;;;;9.18;3.17;;;6.50;92.40;;;;;;5031654;28;20382;-54
2022/01/18 08:32:58;;;;;;;10.27;3.28;;;6.50;92.40;;;;;;5032523;28;20068;-51
2022/01/18 08:35:26;;;;;;;11.98;3.65;;;6.60;92.50;;;;;;5028890;28;20443;-50
2022/01/18 08:37:52;;;;;;;21.33;4.32;;;6.60;92.40;;;;;;5032017;28;20122;-49
2022/01/18 08:40:19;;;;;;;14.73;3.90;;;6.70;92.40;;;;;;5032532;28;20037;-52
2022/01/18 08:42:46;;;;;;;14.52;4.03;;;6.70;92.40;;;;;;5032482;28;20052;-50
2022/01/18 08:45:13;;;;;;;13.40;3.60;;;6.70;92.40;;;;;;5031467;28;20041;-54
2022/01/18 08:47:40;;;;;;;11.82;3.95;;;6.70;92.30;;;;;;5033090;28;20045;-51
2022/01/18 08:50:08;;;;;;;20.50;5.55;;;6.70;92.30;;;;;;5031628;28;20029;-53
2022/01/18 08:52:37;;;;;;;18.45;4.25;;;6.70;92.30;;;;;;5033499;28;20036;-53
2022/01/18 08:55:03;;;;;;;21.42;6.55;;;6.70;92.30;;;;;;5032386;28;20029;-50
2022/01/18 08:57:29;;;;;;;15.48;4.15;;;6.70;92.30;;;;;;5032393;28;20107;-54
2022/01/18 08:59:56;;;;;;;12.85;3.90;;;6.80;92.40;;;;;;5015282;28;20124;-54
2022/01/18 09:02:23;;;;;;;13.45;3.47;;;6.70;92.30;;;;;;5031692;28;20030;-54
2022/01/18 09:04:50;;;;;;;12.32;3.53;;;6.80;92.30;;;;;;5031116;28;20036;-51
2022/01/18 09:07:20;;;;;;;13.10;3.53;;;6.80;92.30;;;;;;5031532;28;20324;-51
2022/01/18 09:09:55;;;;;;;16.25;2.95;;;6.80;92.30;;;;;;5047213;28;20037;-49
2022/01/18 09:12:22;;;;;;;11.65;3.25;;;6.90;92.30;;;;;;5032017;28;20121;-51
2022/01/18 09:14:48;;;;;;;12.25;3.22;;;6.90;92.30;;;;;;5032065;28;20038;-50
2022/01/18 09:17:15;;;;;;;11.20;2.13;;;6.90;92.10;;;;;;5032539;28;20033;-52
2022/01/18 09:19:44;;;;;;;8.52;1.92;;;6.90;92.10;;;;;;5031031;28;20038;-51
2022/01/18 09:22:09;;;;;;;11.70;3.23;;;6.90;92.10;;;;;;5032153;28;20041;-53
2022/01/18 09:24:35;;;;;;;6.85;2.55;;;7.00;92.10;;;;;;5032216;28;20033;-53
2022/01/18 09:27:05;;;;;;;8.80;2.65;;;7.00;92.00;;;;;;5015074;28;20030;-53
2022/01/18 09:29:31;;;;;;;9.25;2.10;;;7.00;91.90;;;;;;5031171;28;20068;-51
2022/01/18 09:31:58;;;;;;;6.13;1.50;;;7.00;91.70;;;;;;5031092;28;20443;-50
2022/01/18 09:34:24;;;;;;;6.97;3.28;;;6.90;91.40;;;;;;5025830;28;20087;-47
2022/01/18 09:36:51;;;;;;;4.95;2.80;;;7.00;91.50;;;;;;5031900;28;20116;-49
2022/01/18 09:39:18;;;;;;;7.20;2.17;;;6.90;91.40;;;;;;5032395;28;20037;-49
2022/01/18 09:41:50;;;;;;;6.93;2.15;;;7.00;91.40;;;;;;5031411;28;20359;-48
2022/01/18 09:44:20;;;;;;;5.32;2.45;;;7.10;91.40;;;;;;5030944;28;20041;-48
2022/01/18 09:46:50;;;;;;;4.38;2.15;;;7.10;91.30;;;;;;5032268;28;20443;-47
2022/01/18 09:49:18;;;;;;;9.15;2.10;;;7.20;91.30;;;;;;5031171;28;20041;-50
2022/01/18 09:51:45;;;;;;;3.65;1.75;;;7.20;91.30;;;;;;5032395;28;20483;-50
2022/01/18 09:54:12;;;;;;;8.43;1.95;;;7.30;91.20;;;;;;5032207;28;20131;-46
2022/01/18 09:56:39;;;;;;;4.68;1.40;;;7.30;91.00;;;;;;5032214;28;20026;-49
2022/01/18 09:59:06;;;;;;;3.70;1.58;;;7.30;90.70;;;;;;5031893;28;20395;-49
2022/01/18 10:01:34;;;;;;;5.70;0.80;;;7.30;90.50;;;;;;5032422;28;20040;-53
2022/01/18 10:04:19;;;;;;;7.03;1.13;;;7.20;90.10;;;;;;5034275;28;20099;-47
2022/01/18 10:06:55;;;;;;;4.18;1.10;;;7.00;89.90;;;;;;5034730;28;20022;-49
2022/01/18 10:09:23;;;;;;;6.43;1.73;;;7.00;90.20;;;;;;5034612;28;20522;-47
2022/01/18 10:12:07;;;;;;;8.70;2.70;;;7.10;90.40;;;;;;5035279;28;20706;-48
2022/01/18 10:14:35;;;;;;;5.20;2.13;;;7.10;90.40;;;;;;5036013;28;20378;-50
2022/01/18 10:17:03;;;;;;;5.43;2.25;;;7.20;90.30;;;;;;5034884;28;20052;-46
2022/01/18 10:19:41;;;;;;;3.50;0.80;;;7.20;90.30;;;;;;5035142;28;20347;-47
2022/01/18 10:22:10;;;;;;;2.03;0.93;;;7.20;90.00;;;;;;5033943;28;20485;-47
2022/01/18 10:24:38;;;;;;;2.47;0.63;;;7.10;89.50;;;;;;5034673;28;20096;-47
2022/01/18 10:27:06;;;;;;;3.80;0.68;;;7.10;89.50;;;;;;5035029;28;20025;-45
2022/01/18 10:29:37;;;;;;;3.00;1.17;;;7.20;89.30;;;;;;5035511;28;20029;-45
2022/01/18 10:37:25;;;;;;;5.22;1.60;;;7.10;88.70;;;;;;5035219;28;20029;-46
2022/01/18 10:39:59;;;;;;;5.45;1.60;;;7.10;88.80;;;;;;5034863;28;20463;-44
2022/01/18 10:42:30;;;;;;;7.53;2.13;;;7.10;89.00;;;;;;5034027;28;20049;-48
2022/01/18 10:45:14;;;;;;;6.60;1.98;;;7.10;89.00;;;;;;5035096;28;20029;-49
2022/01/18 10:48:02;;;;;;;6.78;2.72;;;7.10;89.30;;;;;;5034970;28;20021;-50
2022/01/18 10:50:35;;;;;;;6.45;1.60;;;7.20;89.30;;;;;;5034509;28;20339;-45
2022/01/18 10:53:25;;;;;;;6.38;1.88;;;7.20;89.20;;;;;;5034757;28;20025;-47
2022/01/18 10:56:14;;;;;;;8.75;1.90;;;7.20;88.90;;;;;;5034998;28;20032;-47
2022/01/18 10:58:55;;;;;;;6.22;1.67;;;7.10;88.70;;;;;;5016984;28;20255;-45
2022/01/18 11:01:23;;;;;;;6.50;1.90;;;7.10;88.80;;;;;;5033517;28;20021;-47
2022/01/18 11:04:07;;;;;;;6.18;2.33;;;7.10;88.90;;;;;;5033848;28;20030;-46
2022/01/18 11:06:35;;;;;;;6.25;2.58;;;7.10;89.00;;;;;;5033380;28;20034;-44
2022/01/18 11:09:31;;;;;;;7.47;2.53;;;7.10;89.00;;;;;;5033544;28;20029;-43
2022/01/18 11:11:58;;;;;;;5.07;2.40;;;7.20;89.00;;;;;;5029449;28;20466;-45
2022/01/18 11:14:26;;;;;;;3.58;1.27;;;7.10;89.00;;;;;;5032274;28;20030;-45
2022/01/18 11:16:56;;;;;;;5.22;1.90;;;7.00;89.00;;;;;;5034297;28;20088;-44
2022/01/18 11:21:59;;;;;;;6.45;1.10;;;7.10;88.80;;;;;;5033983;28;20048;-44
2022/01/18 11:24:28;;;;;;;4.20;1.30;;;7.10;88.50;;;;;;5032830;28;20034;-45
2022/01/18 11:26:56;;;;;;;2.63;1.10;;;7.10;88.40;;;;;;5034000;28;20037;-44
2022/01/18 11:29:23;;;;;;;6.18;1.10;;;7.20;88.30;;;;;;5033816;28;20048;-44
2022/01/18 11:31:54;;;;;;;3.15;1.42;;;7.20;88.10;;;;;;5033780;28;20057;-44
2022/01/18 11:34:57;;;;;;;8.00;2.45;;;7.30;88.10;;;;;;5029876;28;20029;-44
2022/01/18 11:37:48;;;;;;;7.68;1.88;;;7.30;88.10;;;;;;5031601;28;20035;-46
2022/01/18 11:40:16;;;;;;;6.15;2.67;;;7.30;88.00;;;;;;5032863;28;20029;-44
2022/01/18 11:42:50;;;;;;;4.68;1.52;;;7.30;87.90;;;;;;5032601;28;20060;-48
2022/01/18 11:45:29;;;;;;;7.82;2.33;;;7.30;87.90;;;;;;5031986;28;20143;-43
2022/01/18 11:48:23;;;;;;;8.32;2.10;;;7.40;87.90;;;;;;5030944;28;20049;-45
2022/01/18 11:51:15;;;;;;;6.75;2.45;;;7.40;87.60;;;;;;5026431;28;20370;-45
2022/01/18 11:56:31;;;;;;;8.82;1.70;;;7.30;87.80;;;;;;5033808;28;20029;-43
2022/01/18 11:59:26;;;;;;;4.00;1.30;;;7.40;87.70;;;;;;5032595;28;20115;-47
2022/01/18 12:02:10;;;;;;;6.53;1.70;;;7.40;87.40;;;;;;5033211;28;20366;-45
2022/01/18 12:04:47;;;;;;;7.68;1.40;;;7.40;87.10;;;;;;5030385;28;20316;-46
2022/01/18 12:07:34;;;;;;;5.45;1.58;;;7.40;87.20;;;;;;5032097;28;20331;-45
2022/01/18 12:10:02;;;;;;;5.70;1.45;;;7.50;87.40;;;;;;5031083;28;20056;-47
2022/01/18 12:12:46;;;;;;;7.57;1.85;;;7.50;87.10;;;;;;5031922;28;20037;-45
2022/01/18 12:15:22;;;;;;;6.90;2.00;;;7.50;87.10;;;;;;5033348;28;20045;-45
2022/01/18 12:17:47;;;;;;;7.63;1.55;;;7.60;86.90;;;;;;5033698;28;20045;-44
2022/01/18 12:20:32;;;;;;;10.77;2.10;;;7.60;86.70;;;;;;5032872;28;20025;-44
2022/01/18 12:23:11;;;;;;;8.23;2.17;;;7.60;86.60;;;;;;5030452;28;20034;-44
2022/01/18 12:26:10;;;;;;;7.22;2.22;;;7.60;86.60;;;;;;5032621;28;20088;-46
2022/01/18 12:28:49;;;;;;;6.97;1.63;;;7.70;86.70;;;;;;5032965;28;20025;-44
2022/01/18 12:34:30;;;;;;;9.02;2.30;;;7.80;86.50;;;;;;5022148;28;20029;-47
2022/01/18 12:37:17;;;;;;;8.10;2.35;;;7.70;86.40;;;;;;5031753;28;20037;-47
2022/01/18 12:40:05;;;;;;;5.95;1.40;;;7.80;86.60;;;;;;5032835;28;20033;-48
2022/01/18 12:45:24;;;;;;;7.60;2.15;;;7.90;86.40;;;;;;5032654;28;20344;-43
2022/01/18 12:48:09;;;;;;;16.20;4.35;;;7.80;86.20;;;;;;5029505;28;20057;-45
2022/01/18 12:50:48;;;;;;;6.85;3.08;;;7.90;86.40;;;;;;5032613;28;20025;-48
2022/01/18 12:53:20;;;;;;;17.95;5.10;;;7.90;86.40;;;;;;5032909;28;20034;-50
2022/01/18 12:56:06;;;;;;;18.67;8.70;;;7.90;86.50;;;;;;5032503;28;20505;-48
2022/01/18 12:58:50;;;;;;;14.43;5.60;;;7.90;86.30;;;;;;5021312;28;20041;-51
2022/01/18 13:01:27;;;;;;;12.00;4.07;;;7.90;86.30;;;;;;5031482;28;20029;-45
2022/01/18 13:03:57;;;;;;;8.45;3.80;;;8.00;86.00;;;;;;5031403;28;20030;-46
2022/01/18 13:06:27;;;;;;;8.18;3.20;;;8.00;86.00;;;;;;5031198;28;20335;-47
2022/01/18 13:08:55;;;;;;;6.43;2.53;;;8.00;86.20;;;;;;5032597;28;20079;-45
2022/01/18 13:11:25;;;;;;;10.35;3.95;;;8.10;85.90;;;;;;5031897;28;20022;-47
2022/01/18 13:14:02;;;;;;;10.15;4.05;;;8.00;85.70;;;;;;5030180;28;20124;-45
2022/01/18 13:27:23;;;;;;;9.63;4.78;;;7.90;85.50;;;;;;5032002;28;20037;-46
2022/01/18 13:29:53;;;;;;;8.70;5.43;;;7.90;85.50;;;;;;5032122;28;20021;-48
2022/01/18 13:32:29;;;;;;;16.35;6.10;;;7.80;85.60;;;;;;5031664;28;20030;-48
2022/01/18 13:34:58;;;;;;;12.25;5.40;;;7.90;85.70;;;;;;5032234;28;20034;-45
2022/01/18 13:37:31;;;;;;;10.80;4.50;;;7.90;85.60;;;;;;5033949;28;20025;-47
2022/01/18 13:40:02;;;;;;;9.57;3.63;;;7.90;85.70;;;;;;5034842;28;20083;-47
2022/01/18 13:42:37;;;;;;;9.23;3.30;;;7.90;85.60;;;;;;5035496;28;20415;-52
2022/01/18 13:45:07;;;;;;;11.45;3.40;;;7.90;85.40;;;;;;5019510;28;20522;-46
2022/01/18 13:48:02;;;;;;;10.45;2.72;;;7.80;85.20;;;;;;5036121;28;20021;-44
2022/01/18 13:50:57;;;;;;;9.45;3.20;;;7.90;85.30;;;;;;5033995;28;20029;-47
2022/01/18 13:53:30;;;;;;;11.05;3.63;;;7.90;85.20;;;;;;5021757;28;20025;-49
2022/01/18 13:55:59;;;;;;;8.82;4.03;;;7.90;85.30;;;;;;5032737;28;20045;-47
2022/01/18 13:58:30;;;;;;;10.38;3.78;;;7.90;85.30;;;;;;5034718;28;20569;-46
2022/01/18 14:01:14;;;;;;;4.85;2.40;;;7.90;85.40;;;;;;5033955;28;20017;-46
2022/01/18 14:03:43;;;;;;;10.95;3.72;;;7.90;85.30;;;;;;5033900;28;20040;-49
2022/01/18 14:06:11;;;;;;;10.65;4.93;;;7.80;85.20;;;;;;5034735;28;20120;-45
2022/01/18 14:08:49;;;;;;;7.88;3.28;;;7.80;85.40;;;;;;5034750;28;20037;-50
2022/01/18 14:11:23;;;;;;;13.57;3.05;;;7.70;85.60;;;;;;5034748;28;20055;-49
2022/01/18 14:13:54;;;;;;;10.18;3.33;;;7.70;85.60;;;;;;5035724;28;20067;-49
2022/01/18 14:16:28;;;;;;;11.05;3.50;;;7.60;85.60;;;;;;5034636;28;20091;-50
2022/01/18 14:18:58;;;;;;;11.52;3.30;;;7.50;85.80;;;;;;5030298;28;20494;-46
2022/01/18 14:21:26;;;;;;;;;;;7.50;85.90;;;;;;5033738;28;20045;-47
2022/01/18 14:24:18;;;;;;;10.95;3.13;;;7.40;86.10;;;;;;5035706;28;19942;-48
2022/01/18 14:26:57;;;;;;;12.40;3.45;;;7.40;86.10;;;;;;5026099;28;20025;-45
2022/01/18 14:29:42;;;;;;;;;;;7.40;86.40;;;;;;5035977;28;20021;-50
2022/01/18 14:32:09;;;;;;;12.75;3.60;;;7.40;86.50;;;;;;5035308;28;20314;-47
2022/01/18 14:34:56;;;;;;;13.05;3.08;;;7.40;86.40;;;;;;5035135;28;20041;-51
2022/01/18 14:37:37;;;;;;;14.50;4.15;;;7.40;86.40;;;;;;5035029;28;20032;-50
2022/01/18 14:40:16;;;;;;;7.43;2.92;;;7.40;86.60;;;;;;5025495;28;20026;-45
2022/01/18 14:42:46;;;;;;;14.05;3.42;;;7.40;86.40;;;;;;5032939;28;20719;-50